• Join FlightAware (Why Join?)
  • Login
  • US Flag 
07:09AM EDT


 

Airport Tracker/Info


-or-


 

Live Flight TrackerFlight Track Log ✈ N789EX ✈ 16-Nov-2013 ✈ KMWH - KMWH

Flight Track Log - Related Links

Times and Time Zones

All times are in EST time to prevent confusion due to time zone crossing. See the N789EX flight status page for this flight to view local times or setup timezone preferences in your user account.

Time Position Orientation Groundspeed Altitude Reporting Facility
EST Latitude Longitude Course Direction KTS MPH feet Rate Location/Type
02:27PM 40.1950 -105.7380 120° Southeast 497 572 37,000  Level FlightAware
02:28PM 40.1530 -105.6440 120° Southeast 500 575 37,000  Level FlightAware
02:28PM 40.1210 -105.5740 121° Southeast 492 566 37,000  Level FlightAware
02:29PM 40.0540 -105.4230 120° Southeast 480 552 37,000  Level FlightAware
02:30PM 39.9910 -105.2830 120° Southeast 477 549 37,000  Level FlightAware
02:31PM 39.9590 -105.2120 120° Southeast 480 552 37,000 -120 Level FlightAware
02:32PM 39.8950 -105.0710 121° Southeast 482 555 36,900  Descending FlightAware
02:32PM 39.8590 -104.9910 120° Southeast 482 555 37,000 60 Climbing FlightAware
02:33PM 39.8230 -104.9110 120° Southeast 482 555 37,000  Level FlightAware
02:34PM 39.7700 -104.7610 115° Southeast 501 577 37,000  Level FlightAware
02:34PM 39.7530 -104.6920 108° East 504 580 37,000  Level FlightAware
02:35PM 39.7130 -104.5280 108° East 502 578 37,000  Level FlightAware
02:36PM 39.6790 -104.3870 107° East 503 579 37,000  Level FlightAware
02:36PM 39.6560 -104.2950 108° East 504 580 37,000 -9,360 Level FlightAware
02:38PM 47.7203 -119.0578 108° East 422 486 21,600 -7,140 Descending Seattle Center
02:39PM 47.7344 -118.8742 83° East 439 505 22,000 180 Climbing Seattle Center
02:40PM 47.7433 -118.6669 86° East 494 568 22,000 -60 Level Seattle Center
02:41PM 47.7525 -118.4586 86° East 506 582 21,900 -60 Descending Seattle Center
02:42PM 47.7619 -118.2481 86° East 509 586 21,900  Level Seattle Center
02:43PM 47.7647 -118.0428 89° East 503 579 21,900  Level Seattle Center
02:44PM 47.7636 -117.8264 90° East 515 593 21,900  Level Seattle Center
02:45PM 47.7692 -117.6103 88° East 522 601 21,900  Level Seattle Center
02:46PM 47.7669 -117.3528 91° East 519 597 21,900  Level Seattle Center
02:47PM 47.7219 -117.1631 109° East 506 582 22,000 60 Climbing Seattle Center
02:48PM 47.6042 -117.1892 189° South 477 549 22,100  Climbing Seattle Center
02:49PM 47.6058 -117.3778 271° West 480 552 22,100  Level Seattle Center
02:50PM 47.6428 -117.5644 286° West 474 545 22,100 -120 Level Seattle Center
02:51PM 47.6786 -117.7508 286° West 472 543 21,900 -180 Descending Seattle Center
02:52PM 47.7156 -117.9369 287° West 471 542 21,800 -60 Descending Seattle Center
02:53PM 47.7503 -118.1200 286° West 466 536 21,800  Level Seattle Center
02:54PM 47.7897 -118.3056 288° West 469 540 21,900  Climbing Seattle Center
02:55PM 47.8281 -118.4908 287° West 469 540 21,800 -120 Descending Seattle Center
02:56PM 47.8678 -118.6733 288° West 466 536 21,700  Descending Seattle Center
02:57PM 47.9028 -118.8583 286° West 465 535 21,900  Climbing Seattle Center
02:58PM 47.9281 -119.0517 281° West 474 545 21,700 -60 Descending Seattle Center
02:59PM 47.9531 -119.2853 279° West 477 549 21,800 120 Climbing Seattle Center
03:00PM 47.9769 -119.4764 281° West 472 543 22,000  Climbing Seattle Center
03:05PM 48.0880 -120.5810 281° West 491 565 22,000  Level FlightAware
03:06PM 48.1050 -120.7850 277° West 490 564 22,000 -60 Level FlightAware
03:07PM 48.1170 -120.9340 277° West 481 554 21,900 -300 Descending FlightAware
03:08PM 48.1240 -121.0170 277° West 481 554 21,700  Descending FlightAware
03:08PM 48.1330 -121.1620 275° West 455 524 21,900 180 Climbing FlightAware
03:09PM 48.1410 -121.2980 275° West 423 487 22,000 60 Climbing FlightAware
03:10PM 48.1470 -121.4130 275° West 415 478 22,000  Level FlightAware
03:11PM 48.1540 -121.5410 275° West 412 474 22,000 480 Level FlightAware
03:12PM 48.1660 -121.7390 275° West 341 392 23,000 540 Climbing FlightAware
03:12PM 48.1700 -121.8250 274° West 363 418 23,000  Level FlightAware
03:13PM 48.1780 -121.9490 276° West 362 417 23,000  Level FlightAware
03:14PM 48.1900 -122.0320 282° West 341 392 23,000  Level FlightAware
03:14PM 48.2270 -122.0740 323° Northwest 345 397 23,000  Level FlightAware
03:15PM 48.2500 -122.0780 353° North 360 414 23,000  Level FlightAware
03:15PM 48.3110 -122.0250 30° Northeast 448 516 23,000  Level FlightAware
03:16PM 48.3280 -121.9340 74° East 525 604 23,000 -300 Level FlightAware
03:16PM 48.3030 -121.8140 107° East 575 662 22,700 -780 Descending FlightAware
03:17PM 48.2420 -121.6860 126° Southeast 559 643 22,100 -420 Descending FlightAware
03:17PM 48.1940 -121.5770 123° Southeast 546 628 22,200 120 Climbing FlightAware
03:18PM 48.1180 -121.4710 137° Southeast 556 640 22,300 60 Climbing FlightAware
03:19PM 48.0730 -121.3440 118° Southeast 559 643 22,300 -120 Level FlightAware
03:19PM 48.0520 -121.1890 101° East 540 621 22,200 -180 Descending FlightAware
03:20PM 48.0410 -120.9720 94° East 534 615 22,000 -180 Descending FlightAware
03:21PM 48.0460 -120.8610 86° East 518 596 22,000  Level FlightAware
03:21PM 48.0660 -120.7920 67° East 498 573 22,000 180 Level FlightAware
03:22PM 48.0510 -120.6440 99° East 529 609 22,200 120 Climbing FlightAware
03:23PM 48.0320 -120.5110 102° East 539 620 22,200  Level FlightAware
03:24PM 47.9920 -120.3570 111° Southeast 539 620 22,200 -180 Level FlightAware
03:24PM 48.0360 -120.2170 65° Northeast 533 613 22,000 -240 Descending FlightAware
03:25PM 48.0310 -120.1020 94° East 533 613 22,000  Level FlightAware
03:26PM 48.0220 -119.9110 94° East 533 613 22,000  Level FlightAware
03:26PM 48.0160 -119.7950 94° East 533 613 22,000  Level FlightAware
03:27PM 48.0070 -119.6080 94° East 533 613 22,000  Level FlightAware
03:28PM 48.0020 -119.4950 94° East 533 613 22,000 -60 Level FlightAware
03:29PM 47.9789 -119.1403 94° East 519 597 21,900  Descending Seattle Center
03:30PM 47.9389 -118.8897 103° East 518 596 22,000  Climbing Seattle Center
03:31PM 47.9161 -118.6769 99° East 519 597 22,000 -300 Level Seattle Center
03:32PM 47.9219 -118.4806 87° East 541 623 21,500 -60 Descending Seattle Center
03:33PM 47.8892 -118.2842 104° East 504 580 21,900 180 Climbing Seattle Center
03:34PM 47.8728 -118.0772 97° East 505 581 21,900  Level Seattle Center
03:35PM 47.8589 -117.8706 96° East 503 579 21,900  Level Seattle Center
03:36PM 47.9167 -117.7019 63° Northeast 488 562 21,900  Level Seattle Center
03:37PM 48.0300 -117.7467 345° North 459 528 21,900  Level Seattle Center
03:38PM 48.0364 -117.9225 273° West 450 518 21,900  Level Seattle Center
03:39PM 48.0122 -118.0986 258° West 439 505 21,900  Level Seattle Center
03:40PM 47.9883 -118.2786 259° West 444 511 21,900  Level Seattle Center
03:41PM 47.9764 -118.4561 264° West 437 503 22,000  Climbing Seattle Center
03:42PM 47.9989 -118.6272 281° West 447 514 22,000 -60 Level Seattle Center
03:43PM 47.8944 -118.7389 216° Southwest 470 541 21,900 -60 Descending Seattle Center
03:44PM 47.7842 -118.8144 205° Southwest 458 527 21,900 -2,400 Level Seattle Center
03:45PM 47.6586 -118.9053 206° Southwest 423 487 17,100 -4,320 Descending Seattle Center
03:46PM 47.5700 -118.9889 212° Southwest 384 442 13,200 -2,940 Descending Seattle Center
03:48PM 47.4919 -119.0642 213° Southwest 338 389 11,200 -1,680 Descending Seattle Center
03:49PM 47.4192 -119.1228 209° Southwest 292 336 9,900 -660 Descending Seattle Center
03:50PM 47.3531 -119.0589 147° Southeast 294 338 9,900  Level Seattle Center
03:51PM 47.2875 -118.9906 145° Southeast 271 312 9,900  Level Seattle Center
03:52PM 47.2211 -118.9347 150° Southeast 274 315 10,000  Climbing Seattle Center
03:53PM 47.1544 -118.8800 151° Southeast 275 316 10,000 -60 Level Seattle Center
03:54PM 47.0950 -118.8278 149° Southeast 275 316 9,900  Descending Seattle Center
03:55PM 47.0314 -118.7692 148° Southeast 272 313 10,100 240 Climbing Seattle Center
03:56PM 46.9700 -118.7028 144° Southeast 274 315 10,500  Climbing Seattle Center
03:57PM 46.9767 -118.6042 84° East 271 312 10,200 -300 Descending Seattle Center
03:58PM 47.0353 -118.6383 338° Northwest 242 278 9,900 -180 Descending Seattle Center
03:59PM 47.0869 -118.7006 321° Northwest 240 276 9,900 -60 Level Seattle Center
04:00PM 47.1461 -118.7792 318° Northwest 240 276 9,800 -60 Descending Seattle Center
04:01PM 47.1883 -118.8544 310° West 237 273 9,800 60 Level Seattle Center
04:02PM 47.2261 -118.9367 304° West 234 269 10,000 120 Climbing Seattle Center
04:03PM 47.2528 -119.0250 294° West 238 274 10,100  Climbing Seattle Center
04:04PM 47.2781 -119.1144 293° West 238 274 10,100 -60 Level Seattle Center
04:05PM 47.2992 -119.2011 290° West 237 273 10,000  Descending Seattle Center
04:06PM 47.2781 -119.2978 252° West 245 282 10,200  Climbing Seattle Center
04:07PM 47.2228 -119.3589 217° Southwest 249 287 10,100 -60 Descending Seattle Center
04:08PM 47.1689 -119.4208 218° Southwest 252 290 10,100 -60 Level Seattle Center
04:09PM 47.1031 -119.4231 181° South 273 314 10,000  Descending Seattle Center
04:10PM 47.0897 -119.3100 100° East 270 311 10,100  Climbing Seattle Center
04:11PM 47.0969 -119.2003 84° East 274 315 10,100  Level Seattle Center
04:12PM 47.1186 -119.0967 73° East 269 310 10,100  Level Seattle Center
04:13PM 47.1575 -119.0072 57° Northeast 270 311 10,100 -60 Level Seattle Center
04:14PM 47.2317 -119.0086 359° North 256 295 10,000 -120 Descending Seattle Center
04:15PM 47.2983 -119.0225 352° North 247 284 9,900 -360 Descending Seattle Center
04:16PM 47.3631 -119.0347 353° North 235 270 9,300 -1,680 Descending Seattle Center
04:17PM 47.3997 -119.0950 312° West 224 258 6,600 -2,520 Descending Seattle Center
04:18PM 47.3981 -119.1847 268° West 218 251 4,200 -1,740 Descending Seattle Center
04:19PM 47.3811 -119.2761 255° West 214 246 3,100 -600 Descending Seattle Center
04:20PM 47.3653 -119.3511 253° West 195 224 3,000 -60 Descending Seattle Center
04:21PM 47.3156 -119.3689 194° South 208 239 3,000 -480 Level Seattle Center
04:22PM 47.2644 -119.3450 162° South 195 224 2,100 -900 Descending Seattle Center
04:23PM 47.2181 -119.3236 163° South 179 206 1,200 -480 Descending Seattle Center
04:24PM 47.1861 -119.3050 158° South 170 196 1,200  Level Seattle Center
04:26PM 47.2827 -118.7530 72° East  Level FlightAware Approximate
04:33PM 47.8121 -117.9178 278° West  Level FlightAware Approximate
04:34PM 47.8477 -118.3040 278° West  Level FlightAware Approximate
04:35PM 47.8821 -118.6907 278° West  Level FlightAware Approximate
04:36PM 47.9151 -119.0779 277° West  Level FlightAware Approximate
04:37PM 47.9469 -119.4656 277° West  Level FlightAware Approximate
04:38PM 47.9773 -119.8538 277° West  Level FlightAware Approximate
04:39PM 48.0064 -120.2424 277° West  Level FlightAware Approximate
04:40PM 48.0338 -120.6315 276° West  Level FlightAware Approximate
04:41PM 48.0596 -121.0211 276° West  Level FlightAware Approximate
04:42PM 48.0841 -121.4110 276° West  Level FlightAware Approximate
04:43PM 48.1073 -121.8013 275° West  Level FlightAware Approximate
04:44PM 48.1167 -122.0407 90° East  Level FlightAware Approximate
04:45PM 48.1158 -121.9487 94° East  Level FlightAware Approximate
04:46PM 48.0970 -121.5578 94° East  Level FlightAware Approximate
04:47PM 48.0768 -121.1672 94° East  Level FlightAware Approximate
04:48PM 48.0554 -120.7769 95° East  Level FlightAware Approximate
04:49PM 48.0326 -120.3870 95° East  Level FlightAware Approximate
04:50PM 48.0090 -119.9973 95° East  Level FlightAware Approximate
04:51PM 47.9842 -119.6080 95° East  Level FlightAware Approximate
04:52PM 47.9580 -119.2191 96° East  Level FlightAware Approximate
04:53PM 47.9306 -118.8306 96° East  Level FlightAware Approximate
04:54PM 47.9018 -118.4425 96° East  Level FlightAware Approximate
04:55PM 47.8717 -118.0548 96° East  Level FlightAware Approximate
04:56PM 47.8403 -117.6676 97° East  Level FlightAware Approximate
04:57PM 47.8066 -117.2811 97° East  Level FlightAware Approximate
04:58PM 47.7713 -116.8951 98° East  Level FlightAware Approximate
04:59PM 47.7347 -116.5097 98° East  Level FlightAware Approximate
05:00PM 47.6968 -116.1248 98° East  Level FlightAware Approximate
05:01PM 47.6577 -115.7405 98° East  Level FlightAware Approximate
05:02PM 47.6657 -115.9796 274° West  Level FlightAware Approximate
05:03PM 47.6839 -116.3673 274° West  Level FlightAware Approximate
05:04PM 47.7008 -116.7553 274° West  Level FlightAware Approximate
05:05PM 47.7164 -117.1435 274° West  Level FlightAware Approximate
05:06PM 47.8125 -117.5053 292° West  Level FlightAware Approximate
05:07PM 47.6680 -117.7563 288° West  Level FlightAware Approximate
05:08PM 47.7470 -118.1271 288° West  Level FlightAware Approximate
05:09PM 47.8161 -118.5025 284° West  Level FlightAware Approximate
05:10PM 47.8764 -118.8819 283° West  Level FlightAware Approximate
05:11PM 47.9355 -119.2622 283° West  Level FlightAware Approximate
05:12PM 47.9801 -119.6467 276° West  Level FlightAware Approximate
05:13PM 48.0082 -120.0355 276° West  Level FlightAware Approximate
05:14PM 48.0381 -120.4238 287° West  Level FlightAware Approximate
05:15PM 48.0946 -120.8046 276° West  Level FlightAware Approximate
05:16PM 48.1219 -121.1944 276° West  Level FlightAware Approximate
05:17PM 48.1479 -121.5846 276° West  Level FlightAware Approximate
05:18PM 48.1202 -121.9702 326° Northwest  Level FlightAware Approximate
05:19PM 48.0954 -122.0148 110° East  Level FlightAware Approximate
05:20PM 47.9832 -121.6662 110° East  Level FlightAware Approximate
05:21PM 48.1126 -121.4277 96° East  Level FlightAware Approximate
05:22PM 48.0831 -121.0383 96° East  Level FlightAware Approximate
05:23PM 48.0524 -120.6494 97° East  Level FlightAware Approximate
05:24PM 48.0334 -120.2598 90° East  Level FlightAware Approximate
05:25PM 47.9775 -120.5546 256° West  Level FlightAware Approximate
05:26PM 47.9063 -120.9294 256° West  Level FlightAware Approximate
05:26PM 47.2547 -119.3403 84° East 203 234 2,700  Level Seattle Center
05:27PM 47.8092 -121.2846 247° West  Level FlightAware Approximate
05:27PM 47.3158 -119.3667 344° North 226 260 4,900  Level Seattle Center
05:28PM 47.7178 -121.6192 83° East  Level FlightAware Approximate
05:28PM 47.3783 -119.3931 344° North 234 269 8,400  Level Seattle Center
05:29PM 47.7469 -121.2325 83° East  Level FlightAware Approximate
05:29PM 47.4375 -119.4167 345° North 227 261 9,600  Level Seattle Center
05:30PM 47.7747 -120.8454 84° East  Level FlightAware Approximate
05:30PM 47.5050 -119.4008 North 239 275 9,900  Level Seattle Center
05:31PM 47.8013 -120.4579 84° East  Level FlightAware Approximate
05:31PM 47.5581 -119.3858 11° North 194 223 10,100  Level Seattle Center
05:32PM 47.6131 -119.3736 North 198 228 10,100 -180 Level Seattle Center
05:33PM 47.6714 -119.3642 North 195 224 9,800 -60 Descending Seattle Center
05:34PM 47.6825 -119.4297 284° West 196 226 10,000 60 Climbing Seattle Center
05:35PM 47.6300 -119.4606 202° Southwest 209 241 10,000  Level Seattle Center
05:36PM 47.5700 -119.4728 188° South 219 252 10,000 -120 Level Seattle Center
05:37PM 47.5114 -119.4781 183° South 214 246 9,800 -180 Descending Seattle Center
05:38PM 47.4503 -119.4772 179° South 219 252 9,700  Descending Seattle Center
05:39PM 47.3864 -119.4703 176° South 214 246 9,800 120 Climbing Seattle Center
05:40PM 47.3239 -119.4622 175° South 225 259 10,000 -60 Climbing Seattle Center
05:41PM 47.2972 -119.3942 120° Southeast 225 259 9,700 -300 Descending Seattle Center
05:42PM 47.3303 -119.3189 57° Northeast 219 252 9,500 -480 Descending Seattle Center
05:43PM 47.3603 -119.2564 55° Northeast 219 252 8,800 -180 Descending Seattle Center
05:44PM 47.3983 -119.1850 52° Northeast 220 253 9,200 240 Climbing Seattle Center
05:45PM 47.4378 -119.1175 49° Northeast 218 251 9,400 180 Climbing Seattle Center
05:46PM 47.4992 -119.1169 360° North 202 232 9,600 120 Climbing Seattle Center
05:47PM 47.5478 -119.1628 328° Northwest 204 235 9,700 60 Climbing Seattle Center
05:48PM 47.5908 -119.2181 319° Northwest 204 235 9,800 240 Climbing Seattle Center
05:49PM 47.6075 -119.2936 288° West 208 239 10,300 480 Climbing Seattle Center
05:50PM 47.6603 -119.3072 350° North 240 276 10,800 780 Climbing Seattle Center
05:51PM 47.6794 -119.1850 77° East 323 372 11,900 1,380 Climbing Seattle Center
05:52PM 47.6825 -119.0336 88° East 364 419 13,700 1,800 Climbing Seattle Center
05:53PM 47.6822 -118.8706 90° East 391 450 15,600 1,920 Climbing Seattle Center
05:54PM 47.6819 -118.7022 90° East 407 468 17,600 2,160 Climbing Seattle Center
05:55PM 47.6806 -118.5308 91° East 414 476 20,000 1,860 Climbing Seattle Center
05:56PM 47.6806 -118.3517 90° East 431 496 21,400 1,380 Climbing Seattle Center
05:57PM 47.6797 -118.1642 90° East 452 520 22,900 1,440 Climbing Seattle Center
05:58PM 47.6811 -117.9728 89° East 464 534 24,400 1,380 Climbing Seattle Center
05:59PM 47.6817 -117.7778 90° East 473 544 25,800 1,620 Climbing Seattle Center
06:00PM 47.6822 -117.5831 90° East 473 544 27,800 1,080 Climbing Seattle Center
06:01PM 47.6828 -117.3922 90° East 467 537 28,000 60 Climbing Seattle Center
06:02PM 47.6833 -117.1975 90° East 464 534 28,000  Level Seattle Center
06:03PM 47.6844 -116.9844 89° East 492 566 28,000 -120 Level Seattle Center
06:04PM 47.6858 -116.7611 89° East 524 603 27,800 -120 Descending Seattle Center
06:05PM 47.7483 -116.5672 64° Northeast 534 615 27,800 -60 Level Seattle Center
06:06PM 47.8639 -116.6092 346° North 491 565 27,700 60 Descending Seattle Center
06:07PM 47.9072 -116.8311 286° West 475 547 28,000 -60 Climbing Seattle Center
06:08PM 47.9369 -117.0181 283° West 469 540 27,600 60 Descending Seattle Center
06:09PM 47.9431 -117.2128 273° West 482 555 28,200 360 Climbing Seattle Center
06:10PM 47.9414 -117.4086 269° West 481 554 28,400 180 Climbing Seattle Center
06:11PM 47.9431 -117.6025 271° West 475 547 28,600 -540 Climbing Seattle Center
06:12PM 47.9428 -117.7961 270° West 472 543 27,400 -600 Descending Seattle Center
06:13PM 47.9394 -117.9869 269° West 465 535 27,500 -180 Climbing Seattle Center
06:14PM 47.9369 -118.1744 269° West 456 525 27,100 -300 Descending Seattle Center
06:15PM 47.9364 -118.3611 270° West 452 520 26,900  Descending Seattle Center
06:16PM 47.9347 -118.5456 269° West 447 514 27,200 120 Climbing Seattle Center
06:22PM 47.9810 -119.5820 269° West 431 496 28,000 120 Climbing FlightAware
06:23PM 47.9890 -119.6980 276° West 416 479 28,000  Level FlightAware
06:24PM 48.0020 -119.8630 277° West 416 479 28,000 -420 Level FlightAware
06:24PM 48.0060 -119.9300 275° West 407 468 27,500 -2,820 Descending FlightAware
06:25PM 48.0080 -120.0490 271° West 421 484 25,000 -3,840 Descending FlightAware
06:26PM 48.0000 -120.1780 265° West 422 486 21,800 -1,920 Descending FlightAware
06:26PM 47.9970 -120.3070 268° West 422 486 21,800  Level FlightAware
06:27PM 47.9950 -120.3960 268° West 422 486 21,800  Level FlightAware
06:28PM 47.9930 -120.4850 268° West 422 486 21,800  Level FlightAware
06:29PM 47.9900 -120.6340 268° West 422 486 21,800  Level FlightAware
06:29PM 47.9870 -120.7560 268° West 422 486 21,800 -5,820 Level FlightAware
06:30PM 47.9490 -120.9050 249° West 369 425 13,300 -5,940 Descending FlightAware
06:31PM 47.9410 -121.0060 263° West 369 425 13,300  Level FlightAware
06:31PM 47.9380 -121.0580 265° West 369 425 13,300 -1,380 Level FlightAware
06:32PM 47.9250 -121.2180 263° West 274 315 11,400 -1,140 Descending FlightAware
06:33PM 47.9180 -121.3040 263° West 270 311 11,300 -120 Descending FlightAware
06:34PM 47.9120 -121.3870 264° West 284 327 11,300  Level FlightAware
06:35PM 47.9040 -121.4840 263° West 270 311 11,300  Level FlightAware
06:35PM 47.8970 -121.5760 264° West 268 308 11,300  Level FlightAware
06:36PM 47.8910 -121.6480 263° West 262 302 11,300  Level FlightAware
06:37PM 47.8800 -121.7090 255° West 258 297 11,300 -120 Level FlightAware
06:37PM 47.8640 -121.7350 227° Southwest 254 292 11,200 -1,440 Descending FlightAware
06:38PM 47.8490 -121.7800 244° Southwest 235 270 10,100 -2,400 Descending FlightAware
06:38PM 47.8450 -121.8030 255° West 229 264 9,400 -2,580 Descending FlightAware
06:38PM 47.8400 -121.8350 257° West 231 266 8,400 -3,060 Descending FlightAware
06:39PM 47.8310 -121.8880 256° West 232 267 6,600 -3,480 Descending FlightAware
06:39PM 47.8260 -121.9230 258° West 226 260 5,300 -3,120 Descending FlightAware
06:39PM 47.8250 -121.9310 259° West 225 259 5,100 -2,280 Descending FlightAware
06:40PM 47.8170 -121.9960 260° West 212 244 3,400 -1,620 Descending FlightAware
06:40PM 47.8140 -122.0270 262° West 213 245 3,300 -180 Descending FlightAware
06:41PM 47.8110 -122.0520 260° West 213 245 3,300  Level FlightAware
06:41PM 47.8070 -122.0830 259° West 215 247 3,300  Level FlightAware
06:41PM 47.8040 -122.1150 262° West 214 246 3,300 -180 Level FlightAware
06:42PM 47.7990 -122.1510 258° West 215 247 3,200 -780 Descending FlightAware
06:42PM 47.7920 -122.1940 256° West 212 244 2,600 -780 Descending FlightAware
06:43PM 47.7830 -122.2270 248° West 212 244 2,500 -180 Descending FlightAware
06:43PM 47.7750 -122.2600 250° West 215 247 2,500  Level FlightAware
06:43PM 47.7670 -122.2890 248° West 211 243 2,500  Level FlightAware
06:44PM 47.7550 -122.3170 237° Southwest 206 237 2,500  Level FlightAware
06:44PM 47.7410 -122.3500 238° Southwest 208 239 2,500  Level FlightAware
06:45PM 47.7300 -122.3770 239° Southwest 208 239 2,500  Level FlightAware
06:45PM 47.7150 -122.4110 237° Southwest 189 217 2,500  Level FlightAware
06:45PM 47.7030 -122.4210 209° Southwest 190 219 2,500 240 Level FlightAware
06:45PM 47.6970 -122.4210 180° South 189 217 2,600  Climbing FlightAware
06:46PM 47.6650 -122.4150 173° South 173 199 2,500 -120 Descending FlightAware
06:47PM 47.6490 -122.4040 155° Southeast 178 205 2,500 -180 Level FlightAware
06:47PM 47.6290 -122.3850 147° Southeast 174 200 2,400 -660 Descending FlightAware
06:47PM 47.6110 -122.3710 152° Southeast 172 198 2,000 -600 Descending FlightAware
06:48PM 47.6450 -122.3990 331° Northwest 176 203 1,700 -1,140 Descending FlightAware
06:49PM 47.5514 -122.3217 331° Northwest 162 186 300 15,480 Descending Seattle Center
06:50PM 47.5161 -122.2897 149° Southeast 162 186 27,000 28,080 Climbing Seattle Center
06:52PM 47.4875 -121.9764 98° East  Level Estimated
06:59PM 47.3564 -120.6512 98° East  Level Estimated
07:00PM 47.3365 -120.4625 99° East  Level Estimated
07:01PM 47.3162 -120.2738 99° East  Level Estimated
07:02PM 47.2956 -120.0854 99° East  Level Estimated
07:03PM 47.2747 -119.8971 99° East  Level Estimated
07:04PM 47.2535 -119.7089 99° East  Level Estimated
07:05PM 47.2320 -119.5209 99° East  Level Estimated
07:06PM 47.2102 -119.3330 100° East  Level Estimated